createdAt,value
2018-05-31T00:00:00.536Z,21.17
2018-05-31T00:02:33.543Z,21.18
2018-05-31T00:05:06.473Z,21.23
2018-05-31T00:07:39.630Z,21.25
2018-05-31T00:10:11.054Z,21.34
2018-05-31T00:12:43.977Z,21.29
2018-05-31T00:15:18.758Z,21.11
2018-05-31T00:17:50.348Z,21.10
2018-05-31T00:20:21.844Z,21.06
2018-05-31T00:22:56.784Z,21.05
2018-05-31T00:25:26.968Z,20.95
2018-05-31T00:27:58.959Z,20.86
2018-05-31T00:30:31.762Z,20.91
2018-05-31T00:33:05.040Z,20.84
2018-05-31T00:35:37.612Z,20.76
2018-05-31T00:38:10.788Z,20.74
2018-05-31T00:40:40.916Z,20.73
2018-05-31T00:43:12.405Z,20.73
2018-05-31T00:45:43.897Z,20.79
2018-05-31T00:48:15.613Z,20.81
2018-05-31T00:50:50.466Z,20.83
2018-05-31T00:53:24.963Z,20.81
2018-05-31T00:56:21.468Z,20.82
2018-05-31T00:58:56.328Z,20.82
2018-05-31T01:01:27.818Z,20.55
2018-05-31T01:04:00.966Z,20.30
2018-05-31T01:06:33.071Z,20.40
2018-05-31T01:09:04.916Z,20.42
2018-05-31T01:11:38.009Z,20.35
2018-05-31T01:14:09.627Z,20.31
2018-05-31T01:16:42.610Z,20.30
2018-05-31T01:19:15.570Z,20.38
2018-05-31T01:21:48.829Z,20.56
2018-05-31T01:24:21.759Z,20.61
2018-05-31T01:26:54.968Z,20.42
2018-05-31T01:29:29.671Z,20.31
2018-05-31T01:32:02.617Z,20.42
2018-05-31T01:34:34.997Z,20.33
2018-05-31T01:37:08.308Z,20.32
2018-05-31T01:39:38.854Z,20.24
2018-05-31T01:42:08.644Z,20.00
2018-05-31T01:44:43.035Z,19.82
2018-05-31T01:47:16.017Z,19.92
2018-05-31T01:49:47.638Z,19.87
2018-05-31T01:52:20.535Z,19.88
2018-05-31T01:54:53.598Z,19.90
2018-05-31T01:57:25.246Z,19.91
2018-05-31T01:59:58.504Z,19.90
2018-05-31T02:02:29.194Z,19.90
2018-05-31T02:05:02.017Z,19.95
2018-05-31T02:07:34.231Z,19.98
2018-05-31T02:10:07.496Z,19.96
2018-05-31T02:12:41.069Z,19.84
2018-05-31T02:15:12.793Z,19.71
2018-05-31T02:17:44.234Z,19.66
2018-05-31T02:20:16.660Z,19.58
2018-05-31T02:22:49.671Z,19.63
2018-05-31T02:25:22.319Z,19.55
2018-05-31T02:27:55.333Z,19.43
2018-05-31T02:30:29.927Z,19.32
2018-05-31T02:33:04.426Z,19.30
2018-05-31T02:35:36.128Z,19.39
2018-05-31T02:38:09.087Z,19.39
2018-05-31T02:40:40.603Z,19.42
2018-05-31T02:43:10.716Z,19.39
2018-05-31T02:45:42.701Z,19.31
2018-05-31T02:48:15.542Z,19.32
2018-05-31T02:50:45.705Z,19.33
2018-05-31T02:53:20.384Z,19.34
2018-05-31T02:55:51.384Z,19.32
2018-05-31T02:58:23.591Z,19.25
2018-05-31T03:00:55.329Z,19.27
2018-05-31T03:03:27.123Z,19.25
2018-05-31T03:05:56.899Z,19.29
2018-05-31T03:08:29.502Z,19.24
2018-05-31T03:11:02.699Z,19.21
2018-05-31T03:13:35.079Z,19.19
2018-05-31T03:16:07.558Z,19.23
2018-05-31T03:18:40.549Z,19.28
2018-05-31T03:21:15.087Z,19.32
2018-05-31T03:23:46.843Z,19.38
2018-05-31T03:26:20.339Z,19.33
2018-05-31T03:28:55.210Z,19.42
2018-05-31T03:31:28.415Z,19.47
2018-05-31T03:34:00.031Z,19.53
2018-05-31T03:36:33.315Z,19.51
2018-05-31T03:39:06.378Z,19.41
2018-05-31T03:41:39.284Z,19.44
2018-05-31T03:44:11.636Z,19.51
2018-05-31T03:46:44.743Z,19.48
2018-05-31T03:49:19.538Z,19.51
2018-05-31T03:51:51.185Z,19.54
2018-05-31T03:54:22.648Z,19.70
2018-05-31T03:56:54.318Z,19.78
2018-05-31T03:59:27.853Z,19.90
2018-05-31T04:01:58.847Z,19.84
2018-05-31T04:04:30.274Z,19.88
2018-05-31T04:07:03.506Z,19.90
2018-05-31T04:09:35.077Z,20.03
2018-05-31T04:12:08.379Z,20.27
2018-05-31T04:14:41.740Z,20.53
2018-05-31T04:17:14.857Z,20.73
2018-05-31T04:19:46.400Z,20.97
2018-05-31T04:22:20.780Z,21.22
2018-05-31T04:24:51.835Z,21.53
2018-05-31T04:27:25.125Z,21.80
2018-05-31T04:29:55.154Z,22.07
2018-05-31T04:32:29.822Z,22.16
2018-05-31T04:35:03.241Z,22.18
2018-05-31T04:37:35.239Z,22.18
2018-05-31T04:40:06.871Z,22.16
2018-05-31T04:42:39.932Z,22.20
2018-05-31T04:45:11.429Z,22.00
2018-05-31T04:47:42.877Z,21.81
2018-05-31T04:50:16.463Z,21.52
2018-05-31T04:52:47.915Z,21.45
2018-05-31T04:55:19.355Z,21.51
2018-05-31T04:57:49.640Z,21.58
2018-05-31T05:00:22.821Z,21.11
2018-05-31T05:02:54.524Z,21.45
2018-05-31T05:05:24.489Z,21.59
2018-05-31T05:07:56.010Z,21.61
2018-05-31T05:10:28.304Z,21.45
2018-05-31T05:13:02.736Z,21.43
2018-05-31T05:15:33.254Z,20.88
2018-05-31T05:18:06.615Z,21.16
2018-05-31T05:20:36.668Z,21.39
2018-05-31T05:23:08.497Z,21.49
2018-05-31T05:25:40.862Z,20.99
2018-05-31T05:28:13.784Z,21.28
2018-05-31T05:30:45.209Z,21.45
2018-05-31T05:33:15.270Z,21.74
2018-05-31T05:35:48.682Z,21.87
2018-05-31T05:38:23.266Z,21.99
2018-05-31T05:40:58.175Z,22.39
2018-05-31T05:43:30.052Z,22.51
2018-05-31T05:46:01.511Z,22.68
2018-05-31T05:48:34.809Z,23.31
2018-05-31T05:51:04.466Z,23.90
2018-05-31T05:53:35.872Z,24.92
2018-05-31T05:56:08.055Z,25.89
2018-05-31T05:58:39.577Z,26.10
2018-05-31T06:01:12.975Z,26.72
2018-05-31T06:03:44.874Z,27.28
2018-05-31T06:06:16.303Z,27.39
2018-05-31T06:08:49.066Z,27.29
2018-05-31T06:11:23.364Z,28.24
2018-05-31T06:13:54.813Z,28.50
2018-05-31T06:16:26.266Z,28.13
2018-05-31T06:18:57.624Z,29.23
2018-05-31T06:21:28.879Z,28.33
2018-05-31T06:23:58.775Z,27.56
2018-05-31T06:26:31.885Z,27.79
2018-05-31T06:29:03.353Z,27.03
2018-05-31T06:31:34.693Z,27.35
2018-05-31T06:34:06.057Z,27.61
2018-05-31T06:36:38.267Z,27.55
2018-05-31T06:39:09.546Z,28.36
2018-05-31T06:41:43.854Z,29.00
2018-05-31T06:44:14.162Z,29.54
2018-05-31T06:46:47.110Z,29.98
2018-05-31T06:49:18.481Z,30.04
2018-05-31T06:51:50.053Z,29.57
2018-05-31T06:54:21.427Z,29.87
2018-05-31T06:56:54.346Z,30.30
2018-05-31T06:59:27.511Z,29.95
2018-05-31T07:02:00.322Z,30.90
2018-05-31T07:04:33.124Z,31.68
2018-05-31T07:07:04.589Z,30.53
2018-05-31T07:09:35.990Z,30.59
2018-05-31T07:12:07.881Z,31.58
2018-05-31T07:14:40.633Z,30.77
2018-05-31T07:17:13.446Z,31.27
2018-05-31T07:19:46.254Z,30.89
2018-05-31T07:22:15.568Z,31.78
2018-05-31T07:24:50.244Z,32.86
2018-05-31T07:27:20.111Z,32.19
2018-05-31T07:29:52.907Z,30.80
2018-05-31T07:32:24.329Z,30.49
2018-05-31T07:34:55.692Z,29.58
2018-05-31T07:37:28.576Z,29.85
2018-05-31T07:39:58.388Z,30.87
2018-05-31T07:42:29.868Z,30.98
2018-05-31T07:44:59.748Z,30.01
2018-05-31T07:47:32.563Z,30.34
2018-05-31T07:50:05.321Z,29.62
2018-05-31T07:52:37.266Z,30.38
2018-05-31T07:55:06.892Z,30.74
2018-05-31T07:57:38.217Z,30.97
2018-05-31T08:00:10.850Z,31.65
2018-05-31T08:02:42.239Z,31.50
2018-05-31T08:05:15.612Z,31.27
2018-05-31T08:07:47.493Z,29.70
2018-05-31T08:10:17.330Z,29.80
2018-05-31T08:12:48.781Z,29.50
2018-05-31T08:15:20.484Z,29.69
2018-05-31T08:17:53.328Z,29.03
2018-05-31T08:20:27.782Z,28.51
2018-05-31T08:22:59.167Z,28.09
2018-05-31T08:25:32.562Z,27.90
2018-05-31T08:28:07.017Z,27.65
2018-05-31T08:30:39.149Z,27.27
2018-05-31T08:33:10.524Z,27.05
2018-05-31T08:35:42.596Z,26.84
2018-05-31T08:38:14.026Z,26.54
2018-05-31T08:40:44.942Z,26.50
2018-05-31T08:43:17.844Z,26.61
2018-05-31T08:45:50.714Z,26.32
2018-05-31T08:48:20.650Z,26.22
2018-05-31T08:50:55.079Z,26.07
2018-05-31T08:53:26.696Z,25.62
2018-05-31T08:56:01.225Z,25.44
2018-05-31T08:58:34.290Z,24.88
2018-05-31T09:01:07.426Z,24.31
2018-05-31T09:03:41.315Z,24.39
2018-05-31T09:06:12.792Z,25.05
2018-05-31T09:08:44.191Z,25.17
2018-05-31T09:11:16.041Z,24.82
2018-05-31T09:13:48.938Z,24.87
2018-05-31T09:16:20.203Z,25.29
2018-05-31T09:18:51.551Z,25.38
2018-05-31T09:21:22.967Z,25.60
2018-05-31T09:23:54.564Z,25.08
2018-05-31T09:26:27.486Z,25.09
2018-05-31T09:28:57.608Z,24.80
2018-05-31T09:31:28.549Z,25.34
2018-05-31T09:34:00.083Z,24.80
2018-05-31T09:36:33.114Z,25.07
2018-05-31T09:39:06.595Z,24.92
2018-05-31T09:41:38.150Z,24.64
2018-05-31T09:44:11.024Z,25.06
2018-05-31T09:46:44.818Z,24.96
2018-05-31T09:49:18.478Z,24.92
2018-05-31T09:51:49.911Z,24.87
2018-05-31T09:54:20.134Z,25.29
2018-05-31T09:56:51.519Z,24.90
2018-05-31T09:59:21.438Z,25.54
2018-05-31T10:01:54.371Z,25.55
2018-05-31T10:04:25.846Z,25.92
2018-05-31T10:06:58.740Z,26.19
2018-05-31T10:09:32.068Z,26.66
2018-05-31T10:12:03.471Z,26.81
2018-05-31T10:14:35.511Z,26.35
2018-05-31T10:17:05.556Z,26.27
2018-05-31T10:19:39.853Z,26.54
2018-05-31T10:22:12.853Z,26.75
2018-05-31T10:24:44.636Z,26.01
2018-05-31T10:27:17.577Z,25.59
2018-05-31T10:29:47.702Z,25.28
2018-05-31T10:32:22.249Z,25.71
2018-05-31T10:34:56.837Z,25.56
2018-05-31T10:37:28.316Z,25.34
2018-05-31T10:40:00.007Z,25.81
2018-05-31T10:42:34.400Z,25.96
2018-05-31T10:45:07.325Z,25.86
2018-05-31T10:47:41.355Z,25.82
2018-05-31T10:50:14.448Z,25.34
2018-05-31T10:52:47.626Z,25.02
2018-05-31T10:55:19.052Z,24.94
2018-05-31T10:57:52.653Z,24.94
2018-05-31T11:00:27.301Z,24.64
2018-05-31T11:02:58.756Z,24.18
2018-05-31T11:05:30.999Z,24.42
2018-05-31T11:08:02.461Z,24.23
2018-05-31T11:10:35.358Z,24.56
2018-05-31T11:13:06.795Z,24.65
2018-05-31T11:15:39.667Z,24.28
2018-05-31T11:18:12.372Z,24.18
2018-05-31T11:20:43.722Z,24.20
2018-05-31T11:23:16.941Z,24.17
2018-05-31T11:25:48.725Z,23.77
2018-05-31T11:28:22.032Z,24.04
2018-05-31T11:30:54.949Z,24.01
2018-05-31T11:33:26.308Z,23.76
2018-05-31T11:35:57.797Z,23.75
2018-05-31T11:38:31.002Z,23.74
2018-05-31T11:41:02.397Z,24.02
2018-05-31T11:43:36.266Z,24.17
2018-05-31T11:46:06.194Z,24.07
2018-05-31T11:48:39.226Z,24.24
2018-05-31T11:51:10.729Z,24.32
2018-05-31T11:53:45.281Z,24.19
2018-05-31T11:56:18.047Z,24.11
2018-05-31T11:58:51.027Z,24.35
2018-05-31T12:01:22.803Z,24.14
2018-05-31T12:03:55.890Z,24.06
2018-05-31T12:06:26.075Z,24.06
2018-05-31T12:08:59.079Z,24.26
2018-05-31T12:11:32.959Z,23.56
2018-05-31T12:14:04.472Z,23.93
2018-05-31T12:16:37.867Z,24.04
2018-05-31T12:19:10.907Z,24.46
2018-05-31T12:21:45.306Z,24.40
2018-05-31T12:24:17.151Z,25.08
2018-05-31T12:26:51.635Z,25.40
2018-05-31T12:29:23.386Z,24.92
2018-05-31T12:31:54.926Z,24.97
2018-05-31T12:34:26.826Z,25.19
2018-05-31T12:36:58.268Z,24.62
2018-05-31T12:39:29.618Z,25.28
2018-05-31T12:42:02.635Z,24.72
2018-05-31T12:44:35.823Z,25.42
2018-05-31T12:47:07.393Z,25.00
2018-05-31T12:49:39.294Z,25.71
2018-05-31T12:52:13.515Z,25.90
2018-05-31T12:54:46.326Z,25.65
2018-05-31T12:57:19.239Z,25.35
2018-05-31T12:59:53.496Z,25.29
2018-05-31T13:02:26.339Z,25.77
2018-05-31T13:04:57.757Z,26.38
2018-05-31T13:07:31.578Z,26.57
2018-05-31T13:10:03.056Z,27.26
2018-05-31T13:12:33.017Z,27.37
2018-05-31T13:15:03.019Z,27.62
2018-05-31T13:17:34.410Z,26.74
2018-05-31T13:20:04.361Z,26.73
2018-05-31T13:22:35.811Z,27.16
2018-05-31T13:25:10.242Z,26.47
2018-05-31T13:27:41.711Z,26.73
2018-05-31T13:30:13.259Z,26.17
2018-05-31T13:32:44.692Z,26.41
2018-05-31T13:35:18.065Z,26.22
2018-05-31T13:37:48.623Z,26.02
2018-05-31T13:40:18.551Z,26.20
2018-05-31T13:42:48.996Z,26.19
2018-05-31T13:45:21.039Z,26.18
2018-05-31T13:47:52.416Z,26.53
2018-05-31T13:50:23.145Z,26.27
2018-05-31T13:52:53.044Z,26.64
2018-05-31T13:55:24.489Z,27.12
2018-05-31T13:57:57.313Z,26.89
2018-05-31T14:00:30.311Z,26.26
2018-05-31T14:03:01.679Z,26.49
2018-05-31T14:05:34.815Z,26.36
2018-05-31T14:08:08.700Z,26.57
2018-05-31T14:10:41.576Z,26.63
2018-05-31T14:13:12.931Z,26.60
2018-05-31T14:15:47.592Z,27.04
2018-05-31T14:18:17.458Z,26.59
2018-05-31T14:20:50.727Z,26.26
2018-05-31T14:23:23.654Z,26.59
2018-05-31T14:25:53.466Z,26.58
2018-05-31T14:28:26.293Z,26.85
2018-05-31T14:30:57.701Z,26.45
2018-05-31T14:33:30.488Z,26.48
2018-05-31T14:36:02.010Z,26.63
2018-05-31T14:38:33.985Z,26.93
2018-05-31T14:41:07.462Z,26.80
2018-05-31T14:43:39.162Z,26.73
2018-05-31T14:46:10.541Z,26.50
2018-05-31T14:48:43.420Z,26.69
2018-05-31T14:51:17.764Z,26.42
2018-05-31T14:53:50.797Z,26.58
2018-05-31T14:56:23.688Z,26.70
2018-05-31T14:58:55.039Z,26.32
2018-05-31T15:01:28.613Z,26.39
2018-05-31T15:03:59.897Z,26.52
2018-05-31T15:06:32.742Z,26.53
2018-05-31T15:09:05.151Z,26.47
2018-05-31T15:11:37.978Z,26.38
2018-05-31T15:14:10.910Z,26.21
2018-05-31T15:16:42.963Z,26.03
2018-05-31T15:19:14.381Z,25.86
2018-05-31T15:21:46.169Z,25.64
2018-05-31T15:24:17.560Z,25.50
2018-05-31T15:26:49.060Z,25.57
2018-05-31T15:29:21.228Z,25.53
2018-05-31T15:31:52.969Z,25.46
2018-05-31T15:34:27.255Z,25.47
2018-05-31T15:36:58.638Z,25.35
2018-05-31T15:39:31.275Z,25.24
2018-05-31T15:42:04.206Z,25.39
2018-05-31T15:44:38.373Z,24.93
2018-05-31T15:47:11.215Z,24.96
2018-05-31T15:49:44.121Z,24.97
2018-05-31T15:52:17.663Z,25.13
2018-05-31T15:54:48.142Z,25.01
2018-05-31T15:57:19.871Z,24.79
2018-05-31T15:59:54.238Z,24.77
2018-05-31T16:02:27.113Z,24.75
2018-05-31T16:05:01.910Z,24.66
2018-05-31T16:07:33.408Z,24.64
2018-05-31T16:10:04.843Z,24.54
2018-05-31T16:12:37.681Z,24.50
2018-05-31T16:15:09.351Z,24.33
2018-05-31T16:17:39.278Z,24.58
2018-05-31T16:20:10.225Z,24.64
2018-05-31T16:22:44.551Z,24.57
2018-05-31T16:25:16.005Z,24.63
2018-05-31T16:27:48.991Z,24.49
2018-05-31T16:30:20.442Z,24.35
2018-05-31T16:32:51.796Z,24.56
2018-05-31T16:35:20.993Z,24.51
2018-05-31T16:37:53.944Z,24.35
2018-05-31T16:40:25.382Z,24.28
2018-05-31T16:42:59.127Z,24.36
2018-05-31T16:45:28.254Z,24.59
2018-05-31T16:48:01.142Z,24.48
2018-05-31T16:50:32.468Z,24.56
2018-05-31T16:53:05.441Z,24.52
2018-05-31T16:55:38.330Z,24.67
2018-05-31T16:58:09.791Z,24.41
2018-05-31T17:00:44.166Z,24.54
2018-05-31T17:03:14.042Z,24.65
2018-05-31T17:05:47.211Z,24.70
2018-05-31T17:08:20.133Z,24.78
2018-05-31T17:10:54.526Z,25.04
2018-05-31T17:13:26.040Z,24.96
2018-05-31T17:15:57.570Z,24.92
2018-05-31T17:18:30.587Z,24.83
2018-05-31T17:21:02.056Z,24.90
2018-05-31T17:23:34.955Z,24.78
2018-05-31T17:26:06.374Z,24.89
2018-05-31T17:28:37.664Z,24.90
2018-05-31T17:31:09.659Z,25.07
2018-05-31T17:33:39.860Z,24.98
2018-05-31T17:36:12.769Z,24.86
2018-05-31T17:38:45.626Z,25.05
2018-05-31T17:41:17.092Z,25.01
2018-05-31T17:43:51.494Z,25.01
2018-05-31T17:46:23.349Z,25.10
2018-05-31T17:48:54.774Z,25.02
2018-05-31T17:51:27.953Z,25.00
2018-05-31T17:54:00.831Z,24.85
2018-05-31T17:56:34.606Z,24.78
2018-05-31T17:59:04.506Z,24.68
2018-05-31T18:01:34.435Z,24.57
2018-05-31T18:04:05.971Z,24.57
2018-05-31T18:06:35.892Z,24.60
2018-05-31T18:09:09.940Z,24.50
2018-05-31T18:11:44.195Z,24.42
2018-05-31T18:14:17.004Z,24.41
2018-05-31T18:16:47.059Z,24.25
2018-05-31T18:19:18.511Z,24.19
2018-05-31T18:21:50.315Z,24.13
2018-05-31T18:24:22.293Z,24.07
2018-05-31T18:26:56.678Z,24.00
2018-05-31T18:29:30.214Z,24.09
2018-05-31T18:32:03.150Z,24.08
2018-05-31T18:34:37.664Z,24.07
2018-05-31T18:37:11.483Z,24.05
2018-05-31T18:39:44.316Z,23.97
2018-05-31T18:42:15.619Z,23.97
2018-05-31T18:44:47.179Z,23.91
2018-05-31T18:47:21.676Z,23.75
2018-05-31T18:49:56.093Z,23.82
2018-05-31T18:52:27.637Z,23.72
2018-05-31T18:55:00.178Z,23.74
2018-05-31T18:57:35.993Z,23.74
2018-05-31T19:00:07.471Z,23.64
2018-05-31T19:02:41.846Z,23.63
2018-05-31T19:05:13.376Z,23.61
2018-05-31T19:07:47.776Z,23.53
2018-05-31T19:10:19.159Z,23.45
2018-05-31T19:13:09.836Z,23.47
2018-05-31T19:15:41.263Z,23.38
2018-05-31T19:18:33.109Z,23.36
2018-05-31T19:21:06.057Z,23.33
2018-05-31T19:23:40.454Z,23.28
2018-05-31T19:26:13.449Z,23.29
2018-05-31T19:28:46.585Z,23.28
2018-05-31T19:31:18.248Z,23.22
2018-05-31T19:33:50.041Z,23.14
2018-05-31T19:36:40.427Z,23.02
2018-05-31T19:39:14.816Z,22.80
2018-05-31T19:41:49.267Z,22.71
2018-05-31T19:44:40.665Z,22.59
2018-05-31T19:47:13.843Z,22.55
2018-05-31T19:49:47.117Z,22.54
2018-05-31T19:52:39.087Z,22.52
2018-05-31T19:55:11.475Z,22.50
2018-05-31T19:58:00.342Z,22.36
2018-05-31T20:00:53.398Z,22.33
2018-05-31T20:03:34.431Z,22.32
2018-05-31T20:06:06.090Z,22.25
2018-05-31T20:08:35.991Z,22.20
2018-05-31T20:11:09.264Z,22.20
2018-05-31T20:13:40.943Z,22.14
2018-05-31T20:16:13.868Z,22.10
2018-05-31T20:18:47.113Z,22.10
2018-05-31T20:21:20.581Z,22.09
2018-05-31T20:23:55.056Z,22.14
2018-05-31T20:26:28.040Z,22.21
2018-05-31T20:29:01.463Z,22.25
2018-05-31T20:31:36.079Z,22.25
2018-05-31T20:34:07.748Z,21.62
2018-05-31T20:36:42.077Z,21.72
2018-05-31T20:39:15.800Z,21.55
2018-05-31T20:41:50.542Z,21.59
2018-05-31T20:44:22.058Z,21.53
2018-05-31T20:46:54.972Z,21.42
2018-05-31T20:49:26.693Z,21.32
2018-05-31T20:51:58.078Z,21.32
2018-05-31T20:54:28.853Z,21.33
2018-05-31T20:57:02.012Z,21.27
2018-05-31T20:59:33.567Z,21.21
2018-05-31T21:02:04.252Z,21.27
2018-05-31T21:04:37.505Z,21.20
2018-05-31T21:07:10.583Z,21.01
2018-05-31T21:09:44.933Z,20.91
2018-05-31T21:12:16.374Z,20.73
2018-05-31T21:14:49.248Z,20.74
2018-05-31T21:17:20.739Z,20.74
2018-05-31T21:19:50.729Z,20.65
2018-05-31T21:22:22.583Z,20.70
2018-05-31T21:24:54.005Z,20.67
2018-05-31T21:27:25.960Z,20.70
2018-05-31T21:30:00.227Z,20.69
2018-05-31T21:32:33.464Z,20.60
2018-05-31T21:35:03.665Z,20.44
2018-05-31T21:37:36.861Z,20.42
2018-05-31T21:40:11.596Z,20.34
2018-05-31T21:42:41.581Z,20.29
2018-05-31T21:45:15.981Z,20.29
2018-05-31T21:47:50.424Z,20.20
2018-05-31T21:50:21.934Z,20.12
2018-05-31T21:52:56.552Z,20.16
2018-05-31T21:55:29.415Z,20.12
2018-05-31T21:58:02.563Z,20.12
2018-05-31T22:00:54.008Z,20.14
2018-05-31T22:03:26.358Z,20.02
2018-05-31T22:05:59.356Z,19.92
2018-05-31T22:08:30.958Z,19.92
2018-05-31T22:11:03.879Z,19.90
2018-05-31T22:13:38.882Z,19.83
2018-05-31T22:16:10.662Z,19.85
2018-05-31T22:18:42.028Z,19.84
2018-05-31T22:21:16.435Z,19.85
2018-05-31T22:23:50.356Z,19.90
2018-05-31T22:26:25.081Z,19.75
2018-05-31T22:28:56.656Z,19.69
2018-05-31T22:31:31.034Z,19.59
2018-05-31T22:34:02.579Z,19.65
2018-05-31T22:36:35.815Z,19.31
2018-05-31T22:39:07.247Z,19.38
2018-05-31T22:41:40.505Z,19.41
2018-05-31T22:44:14.045Z,19.33
2018-05-31T22:46:47.143Z,19.27
2018-05-31T22:49:19.330Z,19.20
2018-05-31T22:51:52.610Z,19.20
2018-05-31T22:54:24.889Z,19.14
2018-05-31T22:56:58.300Z,19.15
2018-05-31T22:59:31.511Z,19.20
2018-05-31T23:02:03.057Z,19.32
2018-05-31T23:04:38.020Z,19.24
2018-05-31T23:07:11.022Z,18.83
2018-05-31T23:09:41.001Z,18.83
2018-05-31T23:12:13.174Z,18.89
2018-05-31T23:14:46.206Z,18.89
2018-05-31T23:17:19.138Z,18.98
2018-05-31T23:19:53.694Z,19.03
2018-05-31T23:22:23.698Z,19.20
2018-05-31T23:24:53.106Z,19.31
2018-05-31T23:27:26.241Z,19.28
2018-05-31T23:29:59.317Z,19.24
2018-05-31T23:32:29.460Z,19.51
2018-05-31T23:35:00.972Z,19.56
2018-05-31T23:37:34.185Z,19.51
2018-05-31T23:40:06.030Z,19.44
2018-05-31T23:42:39.264Z,19.38
2018-05-31T23:45:12.458Z,19.41
2018-05-31T23:47:44.430Z,19.31
2018-05-31T23:50:17.898Z,19.26
2018-05-31T23:52:51.244Z,19.28
2018-05-31T23:55:25.750Z,19.02
2018-05-31T23:58:00.265Z,18.95
